Aérodrome :
LOGIN :

S'inscrire | Disclaimer

   EN    FR    IT 

 










Légende :    VFR   VFR Marginal   IFR   IFR Intensif   IFR Très Intensif
Visi : 
Plafond : 
>= 8 km
>= 3000ft
5 à 8 km
1000 à 3000 ft
1500m à 5 km
500 à 1000 ft
800 à 1500m
200 à 500 ft
< 800m
< 200 ft
Symboles :   Orages  Brouillard  Fortes neiges  Fortes précipitations  Vent > 20 kt
SIGMETs :   Divers  Orages  Givrage  Turbulence  Onde Orograph.  Cendres Volcan.







- Altitude de l'aérodrome : 219 ft
- Code IATA : DNR
- Voir les cartes d'approche


LFRD - Dinard

DERNIER METAR :
  • 240300Z AUTO 11003KT 070V140 3000 BR NSC 07/07 Q1031 TEMPO 0300 FG VV///

METARs EXPIRÉS :
  • 240230Z AUTO VRB03KT 3500 BR NSC 07/06 Q1031 TEMPO 0300 FG VV///
  • 240200Z AUTO 12005KT 3200 BR NSC 08/07 Q1032 TEMPO 0300 FG VV///
  • 240130Z AUTO 11005KT 3600 -RA BR NSC 09/07 Q1032 TEMPO 0300 FG VV///
  • 240100Z AUTO 10007KT 3300 -RA BR NSC 09/08 Q1032 TEMPO 0300 FG VV///
  • 240030Z AUTO 08003KT 3800 BR NSC 08/08 Q1032 TEMPO 0300 FG VV///

TAF TAF LFRD
Valide du 24 à 00h jusqu'au 25 à 00h UTC


232300Z 2400/2424 VRB03KT 3000 BR NSC
TEMPO 2400/2409 0500 BCFG
PROB40
TEMPO 2400/2409 0300 FG VV///
BECMG 2409/2411 8000 NSW
PROB30
TEMPO 2409/2412 3000 BR BKN003
BECMG 2420/2422 3000 BR
TEMPO 2422/2424 0500 BCFG
ATIS : +33 2 99 16 81 50
Pas de NOTAMs connus pour ce terrain.



MET'MAP, la Météo Aéronautique d'un coup d'oeil ! - Copyright ORBIFLY Décembre 2007 - Disclaimer

ORBIFLY MET'MAP TEAM :

Programmation & Développement : Alexandra Zaïnal
Conception & Développement : Baudouin d'Aumeries
Co-Programmation & Développement : Marc-Olivier Méhu
Soutien technique & logistique : Manuel Goepfert

Contact : metmap@orbifly.com




SOURCES & CREDITS :

   NOAA